sensor_id;sensor_type;location;lat;lon;timestamp;P1;durP1;ratioP1;P2;durP2;ratioP2
18695;SDS011;22617;43.690;27.956;2023-11-18T00:00:07;8.33;;;5.17;;
18695;SDS011;22617;43.690;27.956;2023-11-18T00:05:14;7.93;;;5.63;;
18695;SDS011;22617;43.690;27.956;2023-11-18T00:10:19;12.43;;;7.40;;
18695;SDS011;22617;43.690;27.956;2023-11-18T00:15:23;15.50;;;8.97;;
18695;SDS011;22617;43.690;27.956;2023-11-18T00:20:26;16.63;;;10.00;;
18695;SDS011;22617;43.690;27.956;2023-11-18T00:25:34;17.13;;;10.13;;
18695;SDS011;22617;43.690;27.956;2023-11-18T00:30:38;16.83;;;10.93;;
18695;SDS011;22617;43.690;27.956;2023-11-18T00:35:42;22.43;;;12.90;;
18695;SDS011;22617;43.690;27.956;2023-11-18T00:40:48;22.73;;;11.83;;
18695;SDS011;22617;43.690;27.956;2023-11-18T00:45:52;20.70;;;12.20;;
18695;SDS011;22617;43.690;27.956;2023-11-18T00:50:56;19.43;;;11.67;;
18695;SDS011;22617;43.690;27.956;2023-11-18T00:56:00;17.60;;;10.23;;
18695;SDS011;22617;43.690;27.956;2023-11-18T01:01:04;17.97;;;11.13;;
18695;SDS011;22617;43.690;27.956;2023-11-18T01:06:08;17.27;;;11.23;;
18695;SDS011;22617;43.690;27.956;2023-11-18T01:11:16;21.67;;;13.27;;
18695;SDS011;22617;43.690;27.956;2023-11-18T01:16:21;31.37;;;17.43;;
18695;SDS011;22617;43.690;27.956;2023-11-18T01:21:26;32.23;;;18.20;;
18695;SDS011;22617;43.690;27.956;2023-11-18T01:26:30;34.07;;;19.17;;
18695;SDS011;22617;43.690;27.956;2023-11-18T01:31:35;43.87;;;21.80;;
18695;SDS011;22617;43.690;27.956;2023-11-18T01:36:53;40.10;;;21.10;;
18695;SDS011;22617;43.690;27.956;2023-11-18T01:41:57;41.30;;;22.40;;
18695;SDS011;22617;43.690;27.956;2023-11-18T01:47:05;39.20;;;21.50;;
18695;SDS011;22617;43.690;27.956;2023-11-18T01:52:12;40.93;;;22.43;;
18695;SDS011;22617;43.690;27.956;2023-11-18T01:57:17;41.17;;;22.57;;
18695;SDS011;22617;43.690;27.956;2023-11-18T02:02:21;41.10;;;23.23;;
18695;SDS011;22617;43.690;27.956;2023-11-18T02:07:25;44.67;;;22.67;;
18695;SDS011;22617;43.690;27.956;2023-11-18T02:12:31;45.60;;;22.90;;
18695;SDS011;22617;43.690;27.956;2023-11-18T02:17:42;40.00;;;21.97;;
18695;SDS011;22617;43.690;27.956;2023-11-18T02:22:47;43.83;;;22.57;;
18695;SDS011;22617;43.690;27.956;2023-11-18T02:27:52;38.93;;;20.83;;
18695;SDS011;22617;43.690;27.956;2023-11-18T02:32:58;38.90;;;20.63;;
18695;SDS011;22617;43.690;27.956;2023-11-18T02:38:07;39.23;;;20.77;;
18695;SDS011;22617;43.690;27.956;2023-11-18T02:43:14;41.37;;;19.80;;
18695;SDS011;22617;43.690;27.956;2023-11-18T02:48:18;38.30;;;20.23;;
18695;SDS011;22617;43.690;27.956;2023-11-18T02:53:22;35.77;;;19.30;;
18695;SDS011;22617;43.690;27.956;2023-11-18T02:58:27;37.20;;;20.03;;
18695;SDS011;22617;43.690;27.956;2023-11-18T03:03:31;41.87;;;20.40;;
18695;SDS011;22617;43.690;27.956;2023-11-18T03:08:35;38.93;;;19.40;;
18695;SDS011;22617;43.690;27.956;2023-11-18T03:13:40;38.40;;;20.00;;
18695;SDS011;22617;43.690;27.956;2023-11-18T03:18:44;39.80;;;20.90;;
18695;SDS011;22617;43.690;27.956;2023-11-18T03:23:47;39.47;;;19.87;;
18695;SDS011;22617;43.690;27.956;2023-11-18T03:28:52;40.53;;;20.50;;
18695;SDS011;22617;43.690;27.956;2023-11-18T03:33:56;40.60;;;20.97;;
18695;SDS011;22617;43.690;27.956;2023-11-18T03:38:59;38.97;;;21.00;;
18695;SDS011;22617;43.690;27.956;2023-11-18T03:44:05;42.27;;;20.57;;
18695;SDS011;22617;43.690;27.956;2023-11-18T03:49:10;42.37;;;19.97;;
18695;SDS011;22617;43.690;27.956;2023-11-18T03:54:13;39.43;;;19.90;;
18695;SDS011;22617;43.690;27.956;2023-11-18T03:59:18;41.10;;;19.37;;
18695;SDS011;22617;43.690;27.956;2023-11-18T04:04:22;41.37;;;18.63;;
18695;SDS011;22617;43.690;27.956;2023-11-18T04:09:25;36.73;;;18.53;;
18695;SDS011;22617;43.690;27.956;2023-11-18T04:14:30;35.07;;;18.20;;
18695;SDS011;22617;43.690;27.956;2023-11-18T04:19:34;31.67;;;16.77;;
18695;SDS011;22617;43.690;27.956;2023-11-18T04:24:38;27.13;;;14.33;;
18695;SDS011;22617;43.690;27.956;2023-11-18T04:29:44;26.47;;;14.00;;
18695;SDS011;22617;43.690;27.956;2023-11-18T04:34:47;28.07;;;14.73;;
18695;SDS011;22617;43.690;27.956;2023-11-18T04:39:53;34.00;;;16.53;;
18695;SDS011;22617;43.690;27.956;2023-11-18T04:44:58;36.43;;;16.77;;
18695;SDS011;22617;43.690;27.956;2023-11-18T04:50:04;35.77;;;17.60;;
18695;SDS011;22617;43.690;27.956;2023-11-18T04:55:10;46.17;;;20.43;;
18695;SDS011;22617;43.690;27.956;2023-11-18T05:00:17;48.37;;;19.80;;
18695;SDS011;22617;43.690;27.956;2023-11-18T05:05:21;46.43;;;20.63;;
18695;SDS011;22617;43.690;27.956;2023-11-18T05:10:25;56.43;;;23.37;;
18695;SDS011;22617;43.690;27.956;2023-11-18T05:15:29;55.83;;;22.90;;
18695;SDS011;22617;43.690;27.956;2023-11-18T05:20:33;55.80;;;22.73;;
18695;SDS011;22617;43.690;27.956;2023-11-18T05:25:39;43.63;;;20.03;;
18695;SDS011;22617;43.690;27.956;2023-11-18T05:30:44;36.53;;;16.93;;
18695;SDS011;22617;43.690;27.956;2023-11-18T05:35:48;28.80;;;14.67;;
18695;SDS011;22617;43.690;27.956;2023-11-18T05:40:52;30.83;;;14.63;;
18695;SDS011;22617;43.690;27.956;2023-11-18T05:46:00;30.07;;;15.87;;
18695;SDS011;22617;43.690;27.956;2023-11-18T05:51:23;29.93;;;15.70;;
18695;SDS011;22617;43.690;27.956;2023-11-18T05:56:28;28.87;;;14.40;;
18695;SDS011;22617;43.690;27.956;2023-11-18T06:01:33;29.03;;;15.63;;
18695;SDS011;22617;43.690;27.956;2023-11-18T06:06:39;30.57;;;15.53;;
18695;SDS011;22617;43.690;27.956;2023-11-18T06:11:43;35.20;;;16.30;;
18695;SDS011;22617;43.690;27.956;2023-11-18T06:16:48;35.00;;;17.63;;
18695;SDS011;22617;43.690;27.956;2023-11-18T06:21:52;41.07;;;20.27;;
18695;SDS011;22617;43.690;27.956;2023-11-18T06:26:56;44.23;;;21.30;;
18695;SDS011;22617;43.690;27.956;2023-11-18T06:32:03;48.97;;;22.47;;
18695;SDS011;22617;43.690;27.956;2023-11-18T06:37:07;49.73;;;23.90;;
18695;SDS011;22617;43.690;27.956;2023-11-18T06:42:11;53.50;;;23.20;;
18695;SDS011;22617;43.690;27.956;2023-11-18T06:47:17;58.20;;;25.53;;
18695;SDS011;22617;43.690;27.956;2023-11-18T06:52:21;61.90;;;26.87;;
18695;SDS011;22617;43.690;27.956;2023-11-18T06:57:24;55.87;;;24.30;;
18695;SDS011;22617;43.690;27.956;2023-11-18T07:02:29;60.33;;;26.40;;
18695;SDS011;22617;43.690;27.956;2023-11-18T07:07:33;55.90;;;24.70;;
18695;SDS011;22617;43.690;27.956;2023-11-18T07:12:36;54.53;;;22.87;;
18695;SDS011;22617;43.690;27.956;2023-11-18T07:17:42;62.87;;;26.60;;
18695;SDS011;22617;43.690;27.956;2023-11-18T07:22:45;62.33;;;23.53;;
18695;SDS011;22617;43.690;27.956;2023-11-18T07:27:49;56.53;;;24.40;;
18695;SDS011;22617;43.690;27.956;2023-11-18T07:32:54;55.13;;;23.47;;
18695;SDS011;22617;43.690;27.956;2023-11-18T07:38:03;50.57;;;22.53;;
18695;SDS011;22617;43.690;27.956;2023-11-18T07:43:09;57.00;;;25.90;;
18695;SDS011;22617;43.690;27.956;2023-11-18T07:48:14;46.30;;;20.43;;
18695;SDS011;22617;43.690;27.956;2023-11-18T07:53:19;36.53;;;17.43;;
18695;SDS011;22617;43.690;27.956;2023-11-18T07:58:22;39.23;;;18.23;;
18695;SDS011;22617;43.690;27.956;2023-11-18T08:03:30;36.80;;;18.00;;
18695;SDS011;22617;43.690;27.956;2023-11-18T08:08:35;42.73;;;18.57;;
18695;SDS011;22617;43.690;27.956;2023-11-18T08:13:40;36.30;;;15.53;;
18695;SDS011;22617;43.690;27.956;2023-11-18T08:18:44;31.73;;;15.10;;
18695;SDS011;22617;43.690;27.956;2023-11-18T08:23:48;30.73;;;15.23;;
18695;SDS011;22617;43.690;27.956;2023-11-18T08:28:54;26.90;;;14.07;;
18695;SDS011;22617;43.690;27.956;2023-11-18T08:34:00;23.20;;;12.50;;
18695;SDS011;22617;43.690;27.956;2023-11-18T08:39:06;24.30;;;12.93;;
18695;SDS011;22617;43.690;27.956;2023-11-18T08:44:14;32.23;;;15.73;;
18695;SDS011;22617;43.690;27.956;2023-11-18T08:49:34;41.93;;;21.47;;
18695;SDS011;22617;43.690;27.956;2023-11-18T08:54:39;33.23;;;17.90;;
18695;SDS011;22617;43.690;27.956;2023-11-18T09:00:04;24.17;;;13.40;;
18695;SDS011;22617;43.690;27.956;2023-11-18T09:05:21;23.57;;;12.37;;
18695;SDS011;22617;43.690;27.956;2023-11-18T09:10:24;22.67;;;11.93;;
18695;SDS011;22617;43.690;27.956;2023-11-18T09:15:27;20.90;;;11.13;;
18695;SDS011;22617;43.690;27.956;2023-11-18T09:20:34;20.20;;;10.23;;
18695;SDS011;22617;43.690;27.956;2023-11-18T09:25:37;20.67;;;10.93;;
18695;SDS011;22617;43.690;27.956;2023-11-18T09:30:42;18.70;;;10.73;;
18695;SDS011;22617;43.690;27.956;2023-11-18T09:35:53;17.13;;;10.27;;
18695;SDS011;22617;43.690;27.956;2023-11-18T09:41:01;20.83;;;11.17;;
18695;SDS011;22617;43.690;27.956;2023-11-18T09:46:09;19.07;;;10.77;;
18695;SDS011;22617;43.690;27.956;2023-11-18T09:51:19;17.97;;;10.33;;
18695;SDS011;22617;43.690;27.956;2023-11-18T09:56:30;18.13;;;10.03;;
18695;SDS011;22617;43.690;27.956;2023-11-18T10:01:41;17.93;;;10.73;;
18695;SDS011;22617;43.690;27.956;2023-11-18T10:06:48;18.97;;;11.07;;
18695;SDS011;22617;43.690;27.956;2023-11-18T10:11:55;18.20;;;11.00;;
18695;SDS011;22617;43.690;27.956;2023-11-18T10:17:07;13.27;;;8.50;;
18695;SDS011;22617;43.690;27.956;2023-11-18T10:22:15;14.67;;;8.67;;
18695;SDS011;22617;43.690;27.956;2023-11-18T10:27:26;12.43;;;7.63;;
18695;SDS011;22617;43.690;27.956;2023-11-18T10:32:30;10.90;;;6.80;;
18695;SDS011;22617;43.690;27.956;2023-11-18T10:37:39;9.03;;;6.03;;
18695;SDS011;22617;43.690;27.956;2023-11-18T10:42:45;9.37;;;5.53;;
18695;SDS011;22617;43.690;27.956;2023-11-18T10:47:50;8.93;;;5.73;;
18695;SDS011;22617;43.690;27.956;2023-11-18T10:52:59;7.10;;;5.03;;
18695;SDS011;22617;43.690;27.956;2023-11-18T10:58:04;6.83;;;5.30;;
18695;SDS011;22617;43.690;27.956;2023-11-18T11:03:09;8.87;;;5.73;;
18695;SDS011;22617;43.690;27.956;2023-11-18T11:08:17;6.97;;;4.90;;
18695;SDS011;22617;43.690;27.956;2023-11-18T11:13:37;10.27;;;6.27;;
18695;SDS011;22617;43.690;27.956;2023-11-18T11:18:44;7.33;;;5.70;;
18695;SDS011;22617;43.690;27.956;2023-11-18T11:23:59;6.60;;;4.60;;
18695;SDS011;22617;43.690;27.956;2023-11-18T11:29:13;6.67;;;4.70;;
18695;SDS011;22617;43.690;27.956;2023-11-18T11:34:30;4.80;;;3.70;;
18695;SDS011;22617;43.690;27.956;2023-11-18T11:39:37;4.53;;;3.17;;
18695;SDS011;22617;43.690;27.956;2023-11-18T11:44:48;2.13;;;1.47;;
18695;SDS011;22617;43.690;27.956;2023-11-18T11:49:55;2.83;;;1.20;;
18695;SDS011;22617;43.690;27.956;2023-11-18T11:55:07;3.07;;;1.40;;
18695;SDS011;22617;43.690;27.956;2023-11-18T12:00:15;2.07;;;1.20;;
18695;SDS011;22617;43.690;27.956;2023-11-18T12:05:19;2.03;;;1.37;;
18695;SDS011;22617;43.690;27.956;2023-11-18T12:10:28;2.50;;;1.40;;
18695;SDS011;22617;43.690;27.956;2023-11-18T12:15:49;3.20;;;1.60;;
18695;SDS011;22617;43.690;27.956;2023-11-18T12:20:59;3.50;;;1.70;;
18695;SDS011;22617;43.690;27.956;2023-11-18T12:26:37;2.00;;;1.50;;
18695;SDS011;22617;43.690;27.956;2023-11-18T12:31:42;2.03;;;1.40;;
18695;SDS011;22617;43.690;27.956;2023-11-18T12:48:07;0.80;;;0.80;;
18695;SDS011;22617;43.690;27.956;2023-11-18T12:53:15;3.93;;;1.80;;
18695;SDS011;22617;43.690;27.956;2023-11-18T12:58:21;7.63;;;2.10;;
18695;SDS011;22617;43.690;27.956;2023-11-18T13:03:25;9.17;;;3.20;;
18695;SDS011;22617;43.690;27.956;2023-11-18T13:08:29;1.50;;;1.40;;
18695;SDS011;22617;43.690;27.956;2023-11-18T13:13:34;1.70;;;0.90;;
18695;SDS011;22617;43.690;27.956;2023-11-18T13:18:41;0.90;;;0.80;;
18695;SDS011;22617;43.690;27.956;2023-11-18T13:23:46;1.40;;;0.70;;
18695;SDS011;22617;43.690;27.956;2023-11-18T13:28:53;1.53;;;0.60;;
18695;SDS011;22617;43.690;27.956;2023-11-18T13:33:56;0.70;;;0.67;;
18695;SDS011;22617;43.690;27.956;2023-11-18T13:39:02;1.60;;;0.70;;
18695;SDS011;22617;43.690;27.956;2023-11-18T13:44:10;0.87;;;0.50;;
18695;SDS011;22617;43.690;27.956;2023-11-18T13:49:14;0.77;;;0.60;;
18695;SDS011;22617;43.690;27.956;2023-11-18T13:54:18;1.13;;;0.80;;
18695;SDS011;22617;43.690;27.956;2023-11-18T13:59:22;1.03;;;0.70;;
18695;SDS011;22617;43.690;27.956;2023-11-18T14:04:26;1.10;;;0.90;;
18695;SDS011;22617;43.690;27.956;2023-11-18T14:09:30;0.70;;;0.70;;
18695;SDS011;22617;43.690;27.956;2023-11-18T14:14:39;1.03;;;0.70;;
18695;SDS011;22617;43.690;27.956;2023-11-18T14:19:43;0.90;;;0.77;;
18695;SDS011;22617;43.690;27.956;2023-11-18T14:24:47;2.10;;;0.80;;
18695;SDS011;22617;43.690;27.956;2023-11-18T14:29:52;2.53;;;0.90;;
18695;SDS011;22617;43.690;27.956;2023-11-18T14:34:56;1.43;;;0.90;;
18695;SDS011;22617;43.690;27.956;2023-11-18T14:40:00;4.73;;;2.10;;
18695;SDS011;22617;43.690;27.956;2023-11-18T14:45:06;2.10;;;1.60;;
18695;SDS011;22617;43.690;27.956;2023-11-18T14:50:11;3.00;;;1.13;;
18695;SDS011;22617;43.690;27.956;2023-11-18T14:55:19;1.20;;;1.10;;
18695;SDS011;22617;43.690;27.956;2023-11-18T15:00:24;2.00;;;1.20;;
18695;SDS011;22617;43.690;27.956;2023-11-18T15:05:29;1.43;;;1.27;;
18695;SDS011;22617;43.690;27.956;2023-11-18T15:10:33;1.77;;;1.37;;
18695;SDS011;22617;43.690;27.956;2023-11-18T15:15:40;1.57;;;1.10;;
18695;SDS011;22617;43.690;27.956;2023-11-18T15:20:44;2.13;;;1.40;;
18695;SDS011;22617;43.690;27.956;2023-11-18T15:25:49;3.07;;;1.20;;
18695;SDS011;22617;43.690;27.956;2023-11-18T15:30:54;1.43;;;1.10;;
18695;SDS011;22617;43.690;27.956;2023-11-18T15:35:58;2.03;;;1.00;;
18695;SDS011;22617;43.690;27.956;2023-11-18T15:41:03;1.27;;;0.90;;
18695;SDS011;22617;43.690;27.956;2023-11-18T15:46:10;0.80;;;0.80;;
18695;SDS011;22617;43.690;27.956;2023-11-18T15:51:13;0.73;;;0.57;;
18695;SDS011;22617;43.690;27.956;2023-11-18T15:56:18;1.30;;;0.87;;
18695;SDS011;22617;43.690;27.956;2023-11-18T16:01:24;0.70;;;0.70;;
18695;SDS011;22617;43.690;27.956;2023-11-18T16:06:28;1.83;;;0.50;;
18695;SDS011;22617;43.690;27.956;2023-11-18T16:11:31;1.30;;;1.20;;
18695;SDS011;22617;43.690;27.956;2023-11-18T16:16:36;2.77;;;1.40;;
18695;SDS011;22617;43.690;27.956;2023-11-18T16:21:40;2.07;;;1.70;;
18695;SDS011;22617;43.690;27.956;2023-11-18T16:26:47;2.77;;;1.53;;
18695;SDS011;22617;43.690;27.956;2023-11-18T16:31:52;3.50;;;1.90;;
18695;SDS011;22617;43.690;27.956;2023-11-18T16:36:58;3.47;;;2.10;;
18695;SDS011;22617;43.690;27.956;2023-11-18T16:42:01;4.67;;;1.77;;
18695;SDS011;22617;43.690;27.956;2023-11-18T16:47:07;5.57;;;2.10;;
18695;SDS011;22617;43.690;27.956;2023-11-18T16:52:11;2.67;;;1.67;;
18695;SDS011;22617;43.690;27.956;2023-11-18T16:57:15;2.70;;;1.33;;
18695;SDS011;22617;43.690;27.956;2023-11-18T17:02:20;1.50;;;1.20;;
18695;SDS011;22617;43.690;27.956;2023-11-18T17:07:24;1.73;;;1.27;;
18695;SDS011;22617;43.690;27.956;2023-11-18T17:12:29;1.07;;;0.90;;
18695;SDS011;22617;43.690;27.956;2023-11-18T17:17:34;2.73;;;1.20;;
18695;SDS011;22617;43.690;27.956;2023-11-18T17:22:38;1.57;;;1.10;;
18695;SDS011;22617;43.690;27.956;2023-11-18T17:27:44;2.80;;;1.20;;
18695;SDS011;22617;43.690;27.956;2023-11-18T17:32:49;2.03;;;1.00;;
18695;SDS011;22617;43.690;27.956;2023-11-18T17:37:55;1.30;;;1.20;;
18695;SDS011;22617;43.690;27.956;2023-11-18T17:42:59;1.33;;;0.97;;
18695;SDS011;22617;43.690;27.956;2023-11-18T17:48:04;2.03;;;1.40;;
18695;SDS011;22617;43.690;27.956;2023-11-18T17:53:09;1.63;;;0.97;;
18695;SDS011;22617;43.690;27.956;2023-11-18T17:58:13;1.83;;;1.23;;
18695;SDS011;22617;43.690;27.956;2023-11-18T18:03:19;4.53;;;1.37;;
18695;SDS011;22617;43.690;27.956;2023-11-18T18:08:23;1.70;;;1.20;;
18695;SDS011;22617;43.690;27.956;2023-11-18T18:13:36;1.03;;;0.90;;
18695;SDS011;22617;43.690;27.956;2023-11-18T18:18:42;2.53;;;1.13;;
18695;SDS011;22617;43.690;27.956;2023-11-18T18:23:46;0.83;;;0.80;;
18695;SDS011;22617;43.690;27.956;2023-11-18T18:28:49;1.70;;;1.13;;
18695;SDS011;22617;43.690;27.956;2023-11-18T18:33:55;2.07;;;1.00;;
18695;SDS011;22617;43.690;27.956;2023-11-18T18:38:59;1.40;;;1.10;;
18695;SDS011;22617;43.690;27.956;2023-11-18T18:44:02;3.27;;;1.30;;
18695;SDS011;22617;43.690;27.956;2023-11-18T18:49:07;2.17;;;1.20;;
18695;SDS011;22617;43.690;27.956;2023-11-18T18:54:14;2.87;;;1.40;;
18695;SDS011;22617;43.690;27.956;2023-11-18T18:59:20;2.37;;;1.37;;
18695;SDS011;22617;43.690;27.956;2023-11-18T19:04:26;2.83;;;1.30;;
18695;SDS011;22617;43.690;27.956;2023-11-18T19:09:30;1.83;;;1.20;;
18695;SDS011;22617;43.690;27.956;2023-11-18T19:14:33;2.70;;;1.37;;
18695;SDS011;22617;43.690;27.956;2023-11-18T19:19:38;1.47;;;0.97;;
18695;SDS011;22617;43.690;27.956;2023-11-18T19:24:42;1.13;;;0.90;;
18695;SDS011;22617;43.690;27.956;2023-11-18T19:36:10;1.77;;;0.90;;
18695;SDS011;22617;43.690;27.956;2023-11-18T19:41:14;1.00;;;0.70;;
18695;SDS011;22617;43.690;27.956;2023-11-18T19:46:17;1.50;;;1.17;;
18695;SDS011;22617;43.690;27.956;2023-11-18T19:51:24;2.17;;;1.10;;
18695;SDS011;22617;43.690;27.956;2023-11-18T19:56:27;2.50;;;1.03;;
18695;SDS011;22617;43.690;27.956;2023-11-18T20:01:31;2.23;;;1.13;;
18695;SDS011;22617;43.690;27.956;2023-11-18T20:06:36;2.10;;;0.97;;
18695;SDS011;22617;43.690;27.956;2023-11-18T20:11:46;1.80;;;1.20;;
18695;SDS011;22617;43.690;27.956;2023-11-18T20:16:50;2.10;;;0.80;;
18695;SDS011;22617;43.690;27.956;2023-11-18T20:21:57;1.30;;;0.80;;
18695;SDS011;22617;43.690;27.956;2023-11-18T20:27:02;1.43;;;0.80;;
18695;SDS011;22617;43.690;27.956;2023-11-18T20:32:07;1.20;;;0.70;;
